createdAt,value
2019-06-26T00:01:27.011Z,65.56
2019-06-26T00:03:54.711Z,66.25
2019-06-26T00:06:22.327Z,66.55
2019-06-26T00:08:50.001Z,67.62
2019-06-26T00:11:17.661Z,67.98
2019-06-26T00:13:45.478Z,67.60
2019-06-26T00:16:13.512Z,67.40
2019-06-26T00:18:40.933Z,67.24
2019-06-26T00:21:08.289Z,68.19
2019-06-26T00:23:36.046Z,68.35
2019-06-26T00:26:03.536Z,68.28
2019-06-26T00:28:30.887Z,68.27
2019-06-26T00:30:58.527Z,69.06
2019-06-26T00:33:25.854Z,68.59
2019-06-26T00:35:53.602Z,68.43
2019-06-26T00:38:21.323Z,68.39
2019-06-26T00:40:49.614Z,68.54
2019-06-26T00:43:17.230Z,69.19
2019-06-26T00:45:44.926Z,70.08
2019-06-26T00:48:13.151Z,70.84
2019-06-26T00:50:40.855Z,71.66
2019-06-26T00:53:08.327Z,71.90
2019-06-26T00:55:36.333Z,72.08
2019-06-26T00:58:03.967Z,73.52
2019-06-26T01:00:40.543Z,74.58
2019-06-26T01:03:08.406Z,74.67
2019-06-26T01:05:36.141Z,74.76
2019-06-26T01:08:03.770Z,74.70
2019-06-26T01:10:31.431Z,75.33
2019-06-26T01:12:58.725Z,75.66
2019-06-26T01:15:26.316Z,75.33
2019-06-26T01:17:53.662Z,76.29
2019-06-26T01:20:21.603Z,76.18
2019-06-26T01:22:49.192Z,75.34
2019-06-26T01:25:16.980Z,75.05
2019-06-26T01:27:44.811Z,75.69
2019-06-26T01:30:12.422Z,76.05
2019-06-26T01:32:39.921Z,75.89
2019-06-26T01:35:08.060Z,75.37
2019-06-26T01:37:35.037Z,74.86
2019-06-26T01:40:02.737Z,74.91
2019-06-26T01:42:29.967Z,74.97
2019-06-26T01:44:58.088Z,74.81
2019-06-26T01:47:25.258Z,75.00
2019-06-26T01:49:52.629Z,75.24
2019-06-26T01:52:19.480Z,74.88
2019-06-26T01:54:47.112Z,75.13
2019-06-26T01:57:14.845Z,75.72
2019-06-26T01:59:42.264Z,75.61
2019-06-26T02:02:09.690Z,75.30
2019-06-26T02:04:37.717Z,75.65
2019-06-26T02:07:05.155Z,76.35
2019-06-26T02:09:33.192Z,76.33
2019-06-26T02:12:00.683Z,76.79
2019-06-26T02:14:31.481Z,76.61
2019-06-26T02:16:56.427Z,76.23
2019-06-26T02:19:24.120Z,76.11
2019-06-26T02:21:51.738Z,76.63
2019-06-26T02:24:19.373Z,77.63
2019-06-26T02:26:47.156Z,77.30
2019-06-26T02:29:14.705Z,77.29
2019-06-26T02:31:41.793Z,77.02
2019-06-26T02:34:09.387Z,78.23
2019-06-26T02:36:36.344Z,78.16
2019-06-26T02:39:05.642Z,78.10
2019-06-26T02:41:33.209Z,78.46
2019-06-26T02:44:00.999Z,78.52
2019-06-26T02:46:28.703Z,79.16
2019-06-26T02:48:56.092Z,79.47
2019-06-26T02:51:23.503Z,80.24
2019-06-26T02:53:50.773Z,80.48
2019-06-26T02:56:18.437Z,81.44
2019-06-26T02:58:46.035Z,82.20
2019-06-26T03:01:13.763Z,81.49
2019-06-26T03:03:41.526Z,82.44
2019-06-26T03:06:09.223Z,82.51
2019-06-26T03:08:37.071Z,83.28
2019-06-26T03:11:04.939Z,84.10
2019-06-26T03:13:32.813Z,84.89
2019-06-26T03:16:00.980Z,85.21
2019-06-26T03:18:28.887Z,85.49
2019-06-26T03:20:56.826Z,85.18
2019-06-26T03:23:24.962Z,84.84
2019-06-26T03:25:52.660Z,84.95
2019-06-26T03:28:19.612Z,85.25
2019-06-26T03:30:47.165Z,85.36
2019-06-26T03:33:15.230Z,84.74
2019-06-26T03:35:43.006Z,84.21
2019-06-26T03:38:10.625Z,84.16
2019-06-26T03:40:38.403Z,84.22
2019-06-26T03:43:05.461Z,83.65
2019-06-26T03:45:32.343Z,83.33
2019-06-26T03:48:00.196Z,83.31
2019-06-26T03:50:27.409Z,83.87
2019-06-26T03:52:54.291Z,84.69
2019-06-26T03:55:22.184Z,84.67
2019-06-26T03:57:49.659Z,84.43
2019-06-26T04:00:20.246Z,85.18
2019-06-26T04:02:47.887Z,85.87
2019-06-26T04:05:15.852Z,85.35
2019-06-26T04:07:43.555Z,85.60
2019-06-26T04:10:10.780Z,85.22
2019-06-26T04:12:38.034Z,85.12
2019-06-26T04:15:06.200Z,85.30
2019-06-26T04:17:33.768Z,85.46
2019-06-26T04:20:01.615Z,85.27
2019-06-26T04:22:29.401Z,85.50
2019-06-26T04:24:56.506Z,86.14
2019-06-26T04:27:24.264Z,85.45
2019-06-26T04:29:52.094Z,84.91
2019-06-26T04:32:19.208Z,85.93
2019-06-26T04:34:46.812Z,86.18
2019-06-26T04:37:13.759Z,86.65
2019-06-26T04:39:41.142Z,86.95
2019-06-26T04:42:09.011Z,86.99
2019-06-26T04:44:35.824Z,86.22
2019-06-26T04:47:02.955Z,85.78
2019-06-26T04:49:30.773Z,86.21
2019-06-26T04:52:02.011Z,86.89
2019-06-26T04:54:29.428Z,86.35
2019-06-26T04:56:57.266Z,86.59
2019-06-26T04:59:24.452Z,86.47
2019-06-26T05:01:52.184Z,86.12
2019-06-26T05:04:20.357Z,85.48
2019-06-26T05:06:48.263Z,85.42
2019-06-26T05:09:15.770Z,85.38
2019-06-26T05:11:43.429Z,85.61
2019-06-26T05:14:10.049Z,85.54
2019-06-26T05:16:37.794Z,85.55
2019-06-26T05:19:04.894Z,84.59
2019-06-26T05:21:31.838Z,84.99
2019-06-26T05:23:59.576Z,85.29
2019-06-26T05:26:27.187Z,86.82
2019-06-26T05:28:54.103Z,87.07
2019-06-26T05:31:21.750Z,86.33
2019-06-26T05:33:49.330Z,86.00
2019-06-26T05:36:16.156Z,85.36
2019-06-26T05:38:43.172Z,87.03
2019-06-26T05:41:09.894Z,85.66
2019-06-26T05:43:36.734Z,84.81
2019-06-26T05:46:04.035Z,84.48
2019-06-26T05:48:30.993Z,84.47
2019-06-26T05:50:57.869Z,84.49
2019-06-26T05:53:25.781Z,84.09
2019-06-26T05:55:52.507Z,84.39
2019-06-26T05:58:20.076Z,83.82
2019-06-26T06:00:47.357Z,83.55
2019-06-26T06:03:14.434Z,83.21
2019-06-26T06:05:41.972Z,82.58
2019-06-26T06:08:09.140Z,81.97
2019-06-26T06:10:35.858Z,80.99
2019-06-26T06:13:02.716Z,79.24
2019-06-26T06:15:29.544Z,77.90
2019-06-26T06:17:57.042Z,78.02
2019-06-26T06:20:28.258Z,77.14
2019-06-26T06:22:55.112Z,77.17
2019-06-26T06:25:22.062Z,75.83
2019-06-26T06:27:49.194Z,74.82
2019-06-26T06:30:16.621Z,74.58
2019-06-26T06:32:43.443Z,73.77
2019-06-26T06:35:11.051Z,71.83
2019-06-26T06:37:38.299Z,71.37
2019-06-26T06:40:08.227Z,71.41
2019-06-26T06:42:35.213Z,71.45
2019-06-26T06:45:03.434Z,72.29
2019-06-26T06:47:30.499Z,72.04
2019-06-26T06:49:57.281Z,72.02
2019-06-26T06:52:24.181Z,71.28
2019-06-26T06:54:51.408Z,71.04
2019-06-26T06:57:18.315Z,71.07
2019-06-26T06:59:46.031Z,69.96
2019-06-26T07:02:12.743Z,68.85
2019-06-26T07:04:40.596Z,69.51
2019-06-26T07:07:07.417Z,69.13
2019-06-26T07:09:34.266Z,68.19
2019-06-26T07:12:01.365Z,67.89
2019-06-26T07:14:28.537Z,66.09
2019-06-26T07:16:55.359Z,63.34
2019-06-26T07:19:22.475Z,60.95
2019-06-26T07:21:50.077Z,59.27
2019-06-26T07:24:17.454Z,56.89
2019-06-26T07:26:44.966Z,55.17
2019-06-26T07:29:11.921Z,53.08
2019-06-26T07:31:38.874Z,52.95
2019-06-26T07:34:05.720Z,52.62
2019-06-26T07:36:32.572Z,52.02
2019-06-26T07:38:59.896Z,51.67
2019-06-26T07:41:27.027Z,49.50
2019-06-26T07:43:53.902Z,50.02
2019-06-26T07:46:20.607Z,50.15
2019-06-26T07:48:47.361Z,49.73
2019-06-26T07:51:14.948Z,50.14
2019-06-26T07:53:41.864Z,48.94
2019-06-26T07:56:08.778Z,48.57
2019-06-26T07:58:35.663Z,48.13
2019-06-26T08:01:03.433Z,47.69
2019-06-26T08:03:30.766Z,47.92
2019-06-26T08:05:58.113Z,46.91
2019-06-26T08:08:25.297Z,46.76
2019-06-26T08:10:51.963Z,46.24
2019-06-26T08:13:18.900Z,45.48
2019-06-26T08:15:46.716Z,45.56
2019-06-26T08:18:13.343Z,45.28
2019-06-26T08:20:51.869Z,45.66
2019-06-26T08:23:09.958Z,45.24
2019-06-26T08:25:36.950Z,43.69
2019-06-26T08:28:04.394Z,43.98
2019-06-26T08:30:32.199Z,43.17
2019-06-26T08:32:59.223Z,43.23
2019-06-26T08:35:26.391Z,43.21
2019-06-26T08:38:08.907Z,42.39
2019-06-26T08:40:23.390Z,42.07
2019-06-26T08:42:50.091Z,43.00
2019-06-26T08:45:18.020Z,43.55
2019-06-26T08:47:45.525Z,41.87
2019-06-26T08:50:12.645Z,42.50
2019-06-26T08:52:39.762Z,42.15
2019-06-26T08:55:06.888Z,42.15
2019-06-26T08:57:33.669Z,42.14
2019-06-26T09:00:00.527Z,41.61
2019-06-26T09:02:27.572Z,40.12
2019-06-26T09:04:55.159Z,40.17
2019-06-26T09:07:21.960Z,40.53
2019-06-26T09:09:49.271Z,40.46
2019-06-26T09:12:16.460Z,40.07
2019-06-26T09:14:43.194Z,39.39
2019-06-26T09:17:09.952Z,40.18
2019-06-26T09:19:37.330Z,40.16
2019-06-26T09:22:04.286Z,40.40
2019-06-26T09:24:31.175Z,39.15
2019-06-26T09:26:58.918Z,39.12
2019-06-26T09:29:25.911Z,38.52
2019-06-26T09:31:52.750Z,38.48
2019-06-26T09:34:20.072Z,38.90
2019-06-26T09:36:47.028Z,37.82
2019-06-26T09:39:14.395Z,38.66
2019-06-26T09:41:41.485Z,37.56
2019-06-26T09:44:08.753Z,36.88
2019-06-26T09:46:35.984Z,37.05
2019-06-26T09:49:08.410Z,37.41
2019-06-26T09:51:35.881Z,37.97
2019-06-26T09:54:03.360Z,38.64
2019-06-26T09:56:30.489Z,39.39
2019-06-26T09:58:57.329Z,39.06
2019-06-26T10:01:24.207Z,39.31
2019-06-26T10:03:51.346Z,38.20
2019-06-26T10:06:18.335Z,37.96
2019-06-26T10:08:45.154Z,36.83
2019-06-26T10:11:12.508Z,36.54
2019-06-26T10:13:39.556Z,35.71
2019-06-26T10:16:06.406Z,36.34
2019-06-26T10:18:33.594Z,35.74
2019-06-26T10:21:00.208Z,35.76
2019-06-26T10:23:26.971Z,35.34
2019-06-26T10:25:53.908Z,35.16
2019-06-26T10:28:21.160Z,34.92
2019-06-26T10:30:48.421Z,34.53
2019-06-26T10:33:15.351Z,35.64
2019-06-26T10:35:42.555Z,33.62
2019-06-26T10:38:09.589Z,34.25
2019-06-26T10:40:36.449Z,35.22
2019-06-26T10:43:03.362Z,36.00
2019-06-26T10:45:36.045Z,35.79
2019-06-26T10:48:01.975Z,35.47
2019-06-26T10:50:29.677Z,35.38
2019-06-26T10:52:56.293Z,36.33
2019-06-26T10:55:23.431Z,35.63
2019-06-26T10:57:50.252Z,35.63
2019-06-26T11:00:17.933Z,35.05
2019-06-26T11:02:45.242Z,34.47
2019-06-26T11:05:12.373Z,34.53
2019-06-26T11:07:39.146Z,34.26
2019-06-26T11:10:11.519Z,34.00
2019-06-26T11:12:36.242Z,33.95
2019-06-26T11:15:05.330Z,33.51
2019-06-26T11:17:32.222Z,33.60
2019-06-26T11:19:59.528Z,32.92
2019-06-26T11:22:26.256Z,32.58
2019-06-26T11:24:53.095Z,32.58
2019-06-26T11:27:20.672Z,33.39
2019-06-26T11:29:47.525Z,33.25
2019-06-26T11:32:14.405Z,32.54
2019-06-26T11:34:41.992Z,33.13
2019-06-26T11:37:09.023Z,33.03
2019-06-26T11:39:35.809Z,32.67
2019-06-26T11:42:02.790Z,32.89
2019-06-26T11:44:29.591Z,33.43
2019-06-26T11:46:56.673Z,33.43
2019-06-26T11:49:23.436Z,33.78
2019-06-26T11:51:50.332Z,32.99
2019-06-26T11:54:17.599Z,34.74
2019-06-26T11:56:44.737Z,35.22
2019-06-26T11:59:11.570Z,33.77
2019-06-26T12:01:39.001Z,33.78
2019-06-26T12:04:06.490Z,33.42
2019-06-26T12:06:33.301Z,33.98
2019-06-26T12:09:01.234Z,34.84
2019-06-26T12:11:28.039Z,34.47
2019-06-26T12:13:54.964Z,35.00
2019-06-26T12:16:22.137Z,34.65
2019-06-26T12:18:49.050Z,32.54
2019-06-26T12:21:15.925Z,33.85
2019-06-26T12:23:43.574Z,32.14
2019-06-26T12:26:10.617Z,32.14
2019-06-26T12:28:37.461Z,32.68
2019-06-26T12:31:04.494Z,31.99
2019-06-26T12:33:31.630Z,32.19
2019-06-26T12:35:59.246Z,33.30
2019-06-26T12:38:26.909Z,33.47
2019-06-26T12:40:55.596Z,34.36
2019-06-26T12:43:22.420Z,34.18
2019-06-26T12:45:49.604Z,34.64
2019-06-26T12:48:16.831Z,34.63
2019-06-26T12:50:44.980Z,34.93
2019-06-26T12:53:12.874Z,34.75
2019-06-26T12:55:39.801Z,34.70
2019-06-26T12:58:18.119Z,35.57
2019-06-26T13:00:42.476Z,35.12
2019-06-26T13:03:09.135Z,35.35
2019-06-26T13:05:35.984Z,34.02
2019-06-26T13:08:03.352Z,33.79
2019-06-26T13:10:30.276Z,34.08
2019-06-26T13:12:58.498Z,33.45
2019-06-26T13:15:26.590Z,33.45
2019-06-26T13:17:53.366Z,32.51
2019-06-26T13:20:20.333Z,32.52
2019-06-26T13:22:47.247Z,32.71
2019-06-26T13:25:15.894Z,32.79
2019-06-26T13:27:43.152Z,33.19
2019-06-26T13:30:10.277Z,33.68
2019-06-26T13:32:37.406Z,33.77
2019-06-26T13:35:05.189Z,33.32
2019-06-26T13:37:32.182Z,33.36
2019-06-26T13:39:59.122Z,32.81
2019-06-26T13:42:26.354Z,32.39
2019-06-26T13:44:53.108Z,31.54
2019-06-26T13:47:19.974Z,30.75
2019-06-26T13:49:47.643Z,31.58
2019-06-26T13:52:14.795Z,30.93
2019-06-26T13:54:41.786Z,31.34
2019-06-26T13:57:08.502Z,30.97
2019-06-26T13:59:35.753Z,30.42
2019-06-26T14:02:04.569Z,30.60
2019-06-26T14:04:31.410Z,31.71
2019-06-26T14:06:58.961Z,31.68
2019-06-26T14:09:25.702Z,31.68
2019-06-26T14:11:52.442Z,32.23
2019-06-26T14:14:20.577Z,32.84
2019-06-26T14:16:48.366Z,34.06
2019-06-26T14:19:15.111Z,33.38
2019-06-26T14:21:42.412Z,33.38
2019-06-26T14:24:09.182Z,34.56
2019-06-26T14:26:36.192Z,34.56
2019-06-26T14:29:03.001Z,34.99
2019-06-26T14:31:30.551Z,35.11
2019-06-26T14:33:57.385Z,35.05
2019-06-26T14:36:24.255Z,34.55
2019-06-26T14:38:52.070Z,34.83
2019-06-26T14:41:19.042Z,33.59
2019-06-26T14:43:45.770Z,33.36
2019-06-26T14:46:12.590Z,33.66
2019-06-26T14:48:40.305Z,33.89
2019-06-26T14:51:07.245Z,34.13
2019-06-26T14:53:34.461Z,34.13
2019-06-26T14:56:01.907Z,33.88
2019-06-26T14:58:29.022Z,34.20
2019-06-26T15:00:56.086Z,33.24
2019-06-26T15:03:22.966Z,33.65
2019-06-26T15:05:49.800Z,34.41
2019-06-26T15:08:17.417Z,34.53
2019-06-26T15:10:44.410Z,34.36
2019-06-26T15:13:11.511Z,34.68
2019-06-26T15:15:38.809Z,35.03
2019-06-26T15:18:05.700Z,34.15
2019-06-26T15:20:32.870Z,34.69
2019-06-26T15:22:59.829Z,34.15
2019-06-26T15:25:27.307Z,33.33
2019-06-26T15:27:54.025Z,34.27
2019-06-26T15:30:21.029Z,34.14
2019-06-26T15:32:48.072Z,35.11
2019-06-26T15:35:15.262Z,35.28
2019-06-26T15:37:44.748Z,35.58
2019-06-26T15:40:13.945Z,35.88
2019-06-26T15:42:41.281Z,35.59
2019-06-26T15:45:08.381Z,35.41
2019-06-26T15:47:35.191Z,35.39
2019-06-26T15:50:03.367Z,35.97
2019-06-26T15:52:31.598Z,36.45
2019-06-26T15:54:58.874Z,36.21
2019-06-26T15:57:26.177Z,36.46
2019-06-26T15:59:52.995Z,36.92
2019-06-26T16:02:19.897Z,37.00
2019-06-26T16:04:47.956Z,37.54
2019-06-26T16:07:14.732Z,36.73
2019-06-26T16:09:41.684Z,37.30
2019-06-26T16:12:08.420Z,37.67
2019-06-26T16:14:35.957Z,37.63
2019-06-26T16:17:04.992Z,37.65
2019-06-26T16:19:31.754Z,37.96
2019-06-26T16:21:59.418Z,37.64
2019-06-26T16:24:29.922Z,38.04
2019-06-26T16:26:55.024Z,37.30
2019-06-26T16:29:22.068Z,37.79
2019-06-26T16:31:50.072Z,37.90
2019-06-26T16:34:16.813Z,38.15
2019-06-26T16:36:43.815Z,38.25
2019-06-26T16:39:11.976Z,37.98
2019-06-26T16:41:39.206Z,38.55
2019-06-26T16:44:06.458Z,39.31
2019-06-26T16:46:34.742Z,39.75
2019-06-26T16:49:01.939Z,40.48
2019-06-26T16:51:30.710Z,40.98
2019-06-26T16:53:58.003Z,41.29
2019-06-26T16:56:24.861Z,41.55
2019-06-26T16:58:51.898Z,41.89
2019-06-26T17:01:18.622Z,42.00
2019-06-26T17:03:46.307Z,42.39
2019-06-26T17:06:13.191Z,41.56
2019-06-26T17:08:40.114Z,41.60
2019-06-26T17:11:07.312Z,42.31
2019-06-26T17:13:34.451Z,42.60
2019-06-26T17:16:01.317Z,41.58
2019-06-26T17:18:28.482Z,42.10
2019-06-26T17:20:55.791Z,42.07
2019-06-26T17:23:22.550Z,41.90
2019-06-26T17:25:50.396Z,42.12
2019-06-26T17:28:17.324Z,42.15
2019-06-26T17:30:44.099Z,42.09
2019-06-26T17:33:10.931Z,42.67
2019-06-26T17:35:38.101Z,42.72
2019-06-26T17:38:04.823Z,43.17
2019-06-26T17:40:31.780Z,43.25
2019-06-26T17:43:11.735Z,42.98
2019-06-26T17:45:27.955Z,43.11
2019-06-26T17:47:54.691Z,42.55
2019-06-26T17:50:21.587Z,42.83
2019-06-26T17:52:48.994Z,42.81
2019-06-26T17:55:16.126Z,42.16
2019-06-26T17:57:42.933Z,41.33
2019-06-26T18:00:12.273Z,41.45
2019-06-26T18:02:39.086Z,41.16
2019-06-26T18:05:06.081Z,40.96
2019-06-26T18:07:33.018Z,41.35
2019-06-26T18:10:00.080Z,41.86
2019-06-26T18:12:26.920Z,42.21
2019-06-26T18:14:53.648Z,42.91
2019-06-26T18:17:22.286Z,42.77
2019-06-26T18:19:53.634Z,43.39
2019-06-26T18:22:18.693Z,43.32
2019-06-26T18:24:45.494Z,43.09
2019-06-26T18:27:12.554Z,42.84
2019-06-26T18:29:39.362Z,43.04
2019-06-26T18:32:06.368Z,43.34
2019-06-26T18:34:33.087Z,43.75
2019-06-26T18:37:00.121Z,44.07
2019-06-26T18:39:26.843Z,44.20
2019-06-26T18:41:53.718Z,44.01
2019-06-26T18:44:20.947Z,44.32
2019-06-26T18:46:47.566Z,44.53
2019-06-26T18:49:14.335Z,44.82
2019-06-26T18:51:41.411Z,45.08
2019-06-26T18:54:08.868Z,45.26
2019-06-26T18:56:36.127Z,45.58
2019-06-26T18:59:03.315Z,45.85
2019-06-26T19:01:30.140Z,46.20
2019-06-26T19:03:57.016Z,46.50
2019-06-26T19:06:24.180Z,46.71
2019-06-26T19:08:51.189Z,47.12
2019-06-26T19:11:17.889Z,47.60
2019-06-26T19:13:45.139Z,47.91
2019-06-26T19:16:11.973Z,48.41
2019-06-26T19:18:38.596Z,48.79
2019-06-26T19:21:06.090Z,49.22
2019-06-26T19:23:33.410Z,49.49
2019-06-26T19:26:00.175Z,50.32
2019-06-26T19:28:26.899Z,50.96
2019-06-26T19:30:53.932Z,51.61
2019-06-26T19:33:20.868Z,52.47
2019-06-26T19:35:48.052Z,53.09
2019-06-26T19:38:15.522Z,54.16
2019-06-26T19:40:42.441Z,54.87
2019-06-26T19:43:11.087Z,55.34
2019-06-26T19:45:37.993Z,55.70
2019-06-26T19:48:05.403Z,56.51
2019-06-26T19:50:32.308Z,57.11
2019-06-26T19:52:59.173Z,56.75
2019-06-26T19:55:26.573Z,57.66
2019-06-26T19:57:53.360Z,58.20
2019-06-26T20:00:20.214Z,58.65
2019-06-26T20:02:47.532Z,59.04
2019-06-26T20:05:14.719Z,59.08
2019-06-26T20:07:41.539Z,59.42
2019-06-26T20:10:09.055Z,59.75
2019-06-26T20:12:35.893Z,60.43
2019-06-26T20:15:04.268Z,60.91
2019-06-26T20:17:33.186Z,61.56
2019-06-26T20:20:00.201Z,61.94
2019-06-26T20:22:27.542Z,63.82
2019-06-26T20:24:57.307Z,64.49
2019-06-26T20:27:24.038Z,65.04
2019-06-26T20:29:50.825Z,65.18
2019-06-26T20:32:18.552Z,66.07
2019-06-26T20:34:45.489Z,66.24
2019-06-26T20:37:12.476Z,66.84
2019-06-26T20:39:39.188Z,67.44
2019-06-26T20:42:06.383Z,68.16
2019-06-26T20:44:33.333Z,68.35
2019-06-26T20:47:00.904Z,68.86
2019-06-26T20:49:28.570Z,69.08
2019-06-26T20:51:55.604Z,69.56
2019-06-26T20:54:22.389Z,70.24
2019-06-26T20:56:49.679Z,71.13
2019-06-26T20:59:16.415Z,71.76
2019-06-26T21:01:43.290Z,72.69
2019-06-26T21:04:10.443Z,73.66
2019-06-26T21:06:37.537Z,74.22
2019-06-26T21:09:05.024Z,74.65
2019-06-26T21:11:31.757Z,75.38
2019-06-26T21:13:59.196Z,75.71
2019-06-26T21:16:26.156Z,76.09
2019-06-26T21:18:53.281Z,76.75
2019-06-26T21:21:21.686Z,76.82
2019-06-26T21:23:48.549Z,77.13
2019-06-26T21:26:15.785Z,77.98
2019-06-26T21:28:43.066Z,77.95
2019-06-26T21:31:10.035Z,77.96
2019-06-26T21:33:37.468Z,78.38
2019-06-26T21:36:05.223Z,78.64
2019-06-26T21:38:32.665Z,79.47
2019-06-26T21:40:59.634Z,80.42
2019-06-26T21:43:26.629Z,80.73
2019-06-26T21:45:54.247Z,80.97
2019-06-26T21:48:21.677Z,81.03
2019-06-26T21:50:49.432Z,80.29
2019-06-26T21:53:16.115Z,80.61
2019-06-26T21:55:43.444Z,80.69
2019-06-26T21:58:10.530Z,80.20
2019-06-26T22:00:37.932Z,80.38
2019-06-26T22:03:05.256Z,80.57
2019-06-26T22:05:33.315Z,80.07
2019-06-26T22:08:00.391Z,80.25
2019-06-26T22:10:27.530Z,81.14
2019-06-26T22:12:55.229Z,81.78
2019-06-26T22:15:22.578Z,82.30
2019-06-26T22:17:50.174Z,82.44
2019-06-26T22:20:18.231Z,83.35
2019-06-26T22:22:46.139Z,84.43
2019-06-26T22:25:13.212Z,85.82
2019-06-26T22:27:41.075Z,85.76
2019-06-26T22:30:08.791Z,86.99
2019-06-26T22:32:36.505Z,87.29
2019-06-26T22:35:05.025Z,87.13
2019-06-26T22:37:32.296Z,87.15
2019-06-26T22:39:59.911Z,88.52
2019-06-26T22:42:27.539Z,87.87
2019-06-26T22:44:55.470Z,88.87
2019-06-26T22:47:22.569Z,88.11
2019-06-26T22:49:49.792Z,88.88
2019-06-26T22:52:16.641Z,88.09
2019-06-26T22:54:43.521Z,87.90
2019-06-26T22:57:11.439Z,88.22
2019-06-26T22:59:38.182Z,88.22
2019-06-26T23:02:05.957Z,88.17
2019-06-26T23:04:34.032Z,88.38
2019-06-26T23:07:00.777Z,87.98
2019-06-26T23:09:28.964Z,87.94
2019-06-26T23:11:56.623Z,87.45
2019-06-26T23:14:23.508Z,87.89
2019-06-26T23:16:51.626Z,87.82
2019-06-26T23:19:18.372Z,88.07
2019-06-26T23:21:45.312Z,88.11
2019-06-26T23:24:12.711Z,88.72
2019-06-26T23:26:40.309Z,89.27
2019-06-26T23:29:07.212Z,89.19
2019-06-26T23:31:34.806Z,89.75
2019-06-26T23:34:02.121Z,90.32
2019-06-26T23:36:29.626Z,90.54
2019-06-26T23:38:57.196Z,90.86
2019-06-26T23:41:24.949Z,91.61
2019-06-26T23:43:52.609Z,92.10
2019-06-26T23:46:19.227Z,92.67
2019-06-26T23:48:46.560Z,92.74
2019-06-26T23:51:13.859Z,92.54
2019-06-26T23:53:41.041Z,92.75
2019-06-26T23:56:07.862Z,93.33
2019-06-26T23:58:35.845Z,93.92
